Nearby METAR Reports

 

KORH - Worcester, Massachusetts, USA
Distance from station: NW 4mi, 7km
Updated: Sun, 19-Nov-2017 6:54pm EST
Overcast
Overcast
 Wind from W
Wind: W 15 mph , 24 km/h, Gust: 26 mph , 43 km/h
Temperature: 36°F , 2°C
Wind Chill: 27°F , -3°C
Dew Point: 21°F , -6°C
Humidity: 56%
Barometer: 29.54 inHg , 1000.3 hPa
Clouds: Overcast
Visibility: 10 miles , 16 km
Cloud details: Overcast 3600 ft
2017/11/19 23:54 KORH 192354Z 26013G23KT 10SM OVC036 02/M06 A2954 RMK AO2 PK WND 27035/2257 SLP007 T00171056 10056 20017 53045
KBOS - Boston, Massachusetts, USA
Distance from station: ENE 42mi, 68km
Updated: Sun, 19-Nov-2017 6:54pm EST
Few Clouds
Few Clouds
 Wind from W
Wind: W 23 mph , 37 km/h, Gust: 31 mph , 50 km/h
Temperature: 41°F , 5°C
Wind Chill: 31°F , -1°C
Dew Point: 27°F , -3°C
Humidity: 57%
Barometer: 29.53 inHg , 1000 hPa
Clouds: Few Clouds
Visibility: 10 miles , 16 km
Cloud details: Few Clouds 6000 ft
Few Clouds 8000 ft
2017/11/19 23:54 KBOS 192354Z 27020G27KT 10SM FEW060 FEW080 05/M03 A2953 RMK AO2 PK WND 27031/2326 SLP999 T00501033 10100 20044 51050
 
KCQX - Chatham, Massachusetts, USA
Distance from station: SE 102mi, 164km
Updated: Sun, 19-Nov-2017 6:52pm EST
Clear
Clear
 Wind from W
Wind: W 12 mph , 19 km/h, Gust: 28 mph , 44 km/h
Temperature: 43°F , 6°C
Wind Chill: 37°F , 3°C
Dew Point: 28°F , -2°C
Humidity: 57%
Barometer: 29.54 inHg , 1000.3 hPa
Clouds: Clear
Visibility: 10 miles , 16 km
2017/11/19 23:52 KCQX 192352Z AUTO 28010G24KT 10SM CLR 06/M02 A2954 RMK AO2 SLP004 T00561017 10133 20056 51056
KMVY - Marthas Vineyard, Massachusetts, USA
Distance from station: SE 84mi, 135km
Updated: Sun, 19-Nov-2017 6:53pm EST
Clear
Clear
 Wind from WNW
Wind: WNW 16 mph , 26 km/h, Gust: 37 mph , 59 km/h
Temperature: 43°F , 6°C
Wind Chill: 35°F , 2°C
Dew Point: 27°F , -3°C
Humidity: 53%
Barometer: 29.57 inHg , 1001.4 hPa
Clouds: Clear
Visibility: 10 miles , 16 km
2017/11/19 23:53 KMVY 192353Z AUTO 30014G32KT 10SM CLR 06/M03 A2957 RMK AO2 PK WND 30032/2349 SLP013 T00611028 10133 20061 51052 $
 
KPVC - Provincetown, Massachusetts, USA
Distance from station: NNW 85mi, 136km
Updated: Sun, 19-Nov-2017 6:56pm EST
Clear
Clear
 Wind from W
Wind: W 28 mph , 44 km/h, Gust: 35 mph , 56 km/h
Temperature: 43°F , 6°C
Wind Chill: 33°F , 1°C
Dew Point: 30°F , -1°C
Humidity: 61%
Barometer: 29.52 inHg , 999.7 hPa
Clouds: Clear
Visibility: 10 miles , 16 km
2017/11/19 23:56 KPVC 192356Z AUTO 28024G30KT 10SM CLR 06/M01 A2952 RMK AO2 SLP996 6//// T00561011 10122 20056 51052
KAQW - Savoy, Massachusetts, USA
Distance from station: NNW 66mi, 106km
Updated: Sun, 19-Nov-2017 7:05pm EST
Overcast
Overcast
 Wind from W
Wind: W 16 mph , 26 km/h, Gust: 24 mph , 39 km/h
Temperature: 36°F , 2°C
Wind Chill: 26°F , -3°C
Dew Point: 25°F , -4°C
Humidity: 65%
Barometer: 29.59 inHg , 1002 hPa
Clouds: Overcast
Visibility: 10 miles , 16 km
Cloud details: Mostly cloudy 2900 ft
Overcast 4300 ft
2017/11/20 00:05 KAQW 200005Z AUTO 27014G21KT 10SM BKN029 OVC043 02/M04 A2959 RMK AO2 T00171039
 
KIZG - Fryeburg, Maine, USA
Distance from station: NNE 133mi, 214km
Updated: Sun, 19-Nov-2017 6:54pm EST
Few Clouds
Few Clouds
 Wind from W
Wind: W 17 mph , 28 km/h, Gust: 36 mph , 57 km/h
Temperature: 34°F , 1°C
Wind Chill: 23°F , -5°C
Dew Point: 23°F , -5°C
Humidity: 65%
Barometer: 29.42 inHg , 996.3 hPa
Clouds: Few Clouds
Visibility: 9 miles , 14 km
Cloud details: Few Clouds 2200 ft
2017/11/19 23:54 KIZG 192354Z AUTO 28015G31KT 9SM FEW022 01/M05 A2942 RMK AO2 PK WND 29031/2350 SNB44E53 SLP969 P0000 60000 T00061050 10078 20000 51059
KMWN - Mt Washington, New Hampshire, USA
Distance from station: NNE 146mi, 234km
Updated: Sun, 19-Nov-2017 6:54pm EST
Snow showers, Freezing, Fog, Blowing, Snow, Overcast
Snow showers, Freezing, Fog, Blowing, Snow, Overcast
 Wind from WNW
Wind: WNW 87 mph , 141 km/h, Gust: 96 mph , 154 km/h
Temperature: 7°F , -14°C
Wind Chill: -27°F , -33°C
Dew Point: 7°F , -14°C
Humidity: 100%
Summary: Snow showers, Freezing, Fog, Blowing, Snow
Clouds: Overcast
Visibility: 0 miles , 0 km
Cloud details: Overcast 0 ft
2017/11/19 23:54 KMWN 192354Z 30076G83KT 0SM SHSN FZFG BLSN VV000 M14/M14 RMK PK WND 30089/02 PRESRR LGT ICG 60012 4/002 931013 11077 21149
 
KBML - Berlin, New Hampshire, USA
Distance from station: NNE 160mi, 257km
Updated: Sun, 19-Nov-2017 7:21pm EST
Light snow, Overcast
Light snow, Overcast
 Wind from WNW
Wind: WNW 8 mph , 13 km/h, Gust: 21 mph , 33 km/h
Temperature: 28°F , -2°C
Wind Chill: 20°F , -7°C
Dew Point: 21°F , -6°C
Humidity: 74%
Barometer: 29.44 inHg , 997 hPa
Summary: Light Snow
Clouds: Overcast
Visibility: 9 miles , 14 km
Cloud details: Partly cloudy 3100 ft
Overcast 3900 ft
2017/11/20 00:21 KBML 200021Z AUTO 30007G18KT 260V330 9SM -SN SCT031 OVC039 M02/M06 A2944 RMK AO2 T10171061 PNO $